Blackville, Arkansas
Current Conditions -  °F | °C
As of 11:56 AM on Tuesday 21 Oct 2014 (Local Time) from KM19 Reporting Station
Clear Clear  
Wind Chill: 71°   Ceiling: Unl
Heat Index: 71°   Visibility: 10mi
Dew Point: 49°   Wind: 3mph
Humidity: 46%   Direction: 40°NE
Pressure: 30.14"   Gusts: NA
Location:  35.5678°N, 91.2073°W
Report Text: KM19 211656Z AUTO 04003KT 10SM CLR 22/09 A3014 RMK AO2 T02160094 SLP203
Loading
Personal Weather Stations






























Interactive Weather Map New forecast layout! Learn more

10-Day Weather Forecast

Advertisements
Track Severe Weather on mobile